Time;durP1;ratioP1;P1;durP2;ratioP2;P2;SDS_P1;SDS_P2;PMS_P1;PMS_P2;Temp;Humidity;BMP_temperature;BMP_pressure;BME280_temperature;BME280_humidity;BME280_pressure;Samples;Min_cycle;Max_cycle;Signal;HPM_P1;HPM_P2
2022/07/03 00:02:14;;;;;;;8.40;6.22;;;;;;;;;;10249785;28;20845;-93
2022/07/03 00:07:18;;;;;;;13.35;5.53;;;;;;;;;;10230161;28;20420;-93
2022/07/03 00:12:20;;;;;;;7.33;4.77;;;;;;;;;;10241766;28;20872;-93
2022/07/03 00:17:22;;;;;;;6.40;4.30;;;;;;;;;;10260949;28;20420;-94
2022/07/03 00:22:27;;;;;;;8.73;4.00;;;;;;;;;;10269034;28;20416;-92
2022/07/03 00:27:29;;;;;;;7.55;4.25;;;;;;;;;;10258673;28;20968;-94
2022/07/03 00:32:33;;;;;;;5.00;3.90;;;;;;;;;;10248025;28;20456;-93
2022/07/03 00:37:42;;;;;;;7.60;3.65;;;;;;;;;;10245598;28;20444;-95
2022/07/03 00:42:51;;;;;;;7.30;3.57;;;;;;;;;;10241163;28;20416;-93
2022/07/03 00:47:53;;;;;;;7.00;3.60;;;;;;;;;;10238408;28;20415;-94
2022/07/03 00:52:59;;;;;;;6.55;3.30;;;;;;;;;;10248774;28;20428;-94
2022/07/03 00:58:02;;;;;;;4.57;3.30;;;;;;;;;;10244189;28;20767;-93
2022/07/03 01:03:08;;;;;;;7.35;3.10;;;;;;;;;;10246960;28;20420;-94
2022/07/03 01:08:20;;;;;;;5.63;3.50;;;;;;;;;;10237578;29;20511;-94
2022/07/03 01:13:33;;;;;;;5.03;3.20;;;;;;;;;;10242602;28;20897;-93
2022/07/03 01:18:44;;;;;;;5.30;3.00;;;;;;;;;;10252297;28;20455;-93
2022/07/03 01:24:37;;;;;;;5.32;3.00;;;;;;;;;;10239802;28;20470;-93
2022/07/03 01:29:52;;;;;;;7.53;3.67;;;;;;;;;;10178196;29;20764;-94
2022/07/03 01:34:56;;;;;;;6.90;3.20;;;;;;;;;;10242474;28;20428;-93
2022/07/03 01:39:59;;;;;;;6.20;3.30;;;;;;;;;;10241819;28;20900;-94
2022/07/03 01:45:04;;;;;;;5.63;3.25;;;;;;;;;;10248035;28;20451;-93
2022/07/03 01:50:08;;;;;;;5.17;3.70;;;;;;;;;;10234448;28;20432;-91
2022/07/03 01:55:10;;;;;;;5.87;3.43;;;;;;;;;;10244707;28;20937;-93
2022/07/03 02:00:17;;;;;;;7.25;3.40;;;;;;;;;;10244902;28;20451;-92
2022/07/03 02:05:30;;;;;;;7.82;3.30;;;;;;;;;;10234342;28;20476;-93
2022/07/03 02:10:45;;;;;;;5.70;3.57;;;;;;;;;;10243726;28;20899;-93
2022/07/03 02:15:52;;;;;;;7.03;3.70;;;;;;;;;;10256896;28;20430;-93
2022/07/03 02:21:05;;;;;;;6.63;3.70;;;;;;;;;;10249146;28;20418;-93
2022/07/03 02:26:12;;;;;;;6.00;3.90;;;;;;;;;;10241655;28;20448;-95
2022/07/03 02:31:22;;;;;;;5.90;3.50;;;;;;;;;;10245486;28;20418;-94
2022/07/03 02:36:31;;;;;;;6.32;3.60;;;;;;;;;;10230820;28;20467;-94
2022/07/03 02:41:46;;;;;;;7.57;3.90;;;;;;;;;;10235012;28;20935;-94
2022/07/03 02:46:59;;;;;;;6.50;3.58;;;;;;;;;;10251577;28;20483;-94
2022/07/03 02:52:14;;;;;;;7.78;3.60;;;;;;;;;;10244696;28;20419;-93
2022/07/03 02:57:22;;;;;;;6.60;3.55;;;;;;;;;;10248839;28;20417;-93
2022/07/03 03:03:01;;;;;;;5.27;3.53;;;;;;;;;;10251967;28;20788;-95
2022/07/03 03:08:11;;;;;;;7.25;3.70;;;;;;;;;;10241062;28;20432;-93
2022/07/03 03:13:19;;;;;;;6.00;3.45;;;;;;;;;;10248359;28;20422;-94
2022/07/03 03:18:34;;;;;;;4.32;3.60;;;;;;;;;;10249583;28;20916;-93
2022/07/03 03:23:49;;;;;;;6.75;3.55;;;;;;;;;;10247253;28;20826;-93
2022/07/03 03:28:55;;;;;;;5.20;3.40;;;;;;;;;;10221364;28;20523;-94
2022/07/03 03:34:00;;;;;;;4.78;3.30;;;;;;;;;;10235766;28;20853;-93
2022/07/03 03:39:02;;;;;;;4.57;3.00;;;;;;;;;;10240637;28;20440;-94
2022/07/03 03:44:07;;;;;;;5.13;3.10;;;;;;;;;;10243586;28;20423;-94
2022/07/03 03:49:13;;;;;;;3.77;3.23;;;;;;;;;;10240479;28;20425;-94
2022/07/03 03:54:15;;;;;;;4.72;3.25;;;;;;;;;;10244169;28;20433;-94
2022/07/03 03:59:23;;;;;;;4.68;3.15;;;;;;;;;;10242153;28;20730;-95
2022/07/03 04:04:27;;;;;;;6.00;3.05;;;;;;;;;;10272964;28;20481;-94
2022/07/03 04:09:28;;;;;;;8.43;3.30;;;;;;;;;;10273376;28;20408;-94
2022/07/03 04:14:33;;;;;;;5.57;3.00;;;;;;;;;;10265392;28;20424;-93
2022/07/03 04:19:37;;;;;;;4.80;3.10;;;;;;;;;;10244307;28;20538;-94
2022/07/03 04:24:39;;;;;;;3.92;3.28;;;;;;;;;;10241227;28;20483;-93
2022/07/03 04:29:44;;;;;;;4.25;3.50;;;;;;;;;;10247885;28;20518;-94
2022/07/03 04:34:47;;;;;;;5.50;3.55;;;;;;;;;;10243118;28;20428;-94
2022/07/03 04:39:49;;;;;;;6.13;3.30;;;;;;;;;;10246357;28;20837;-94
2022/07/03 04:44:51;;;;;;;5.18;3.22;;;;;;;;;;10245730;28;20444;-94
2022/07/03 04:50:02;;;;;;;4.53;3.30;;;;;;;;;;10240698;28;20416;-94
2022/07/03 04:55:14;;;;;;;5.15;3.00;;;;;;;;;;10242752;28;20431;-94
2022/07/03 05:00:19;;;;;;;3.97;3.03;;;;;;;;;;10241119;28;20412;-94
2022/07/03 05:05:36;;;;;;;5.35;3.25;;;;;;;;;;10241842;28;20902;-93
2022/07/03 05:10:38;;;;;;;5.95;2.90;;;;;;;;;;10246293;28;20416;-93
2022/07/03 05:15:43;;;;;;;6.47;2.90;;;;;;;;;;10249031;28;20420;-93
2022/07/03 05:20:48;;;;;;;5.00;2.75;;;;;;;;;;10236521;28;20414;-93
2022/07/03 05:25:51;;;;;;;4.67;2.80;;;;;;;;;;10245169;28;20419;-94
2022/07/03 05:30:56;;;;;;;5.65;3.05;;;;;;;;;;10236460;28;21003;-94
2022/07/03 05:36:07;;;;;;;3.63;2.80;;;;;;;;;;10234885;28;20459;-93
2022/07/03 05:41:18;;;;;;;4.38;3.13;;;;;;;;;;10241666;28;20609;-94
2022/07/03 05:46:22;;;;;;;4.97;3.28;;;;;;;;;;10243226;28;20420;-93
2022/07/03 05:51:33;;;;;;;5.83;3.07;;;;;;;;;;10244273;28;20893;-94
2022/07/03 05:56:38;;;;;;;5.70;2.55;;;;;;;;;;10239451;28;20437;-93
2022/07/03 06:01:40;;;;;;;4.95;2.47;;;;;;;;;;10235904;29;20418;-94
2022/07/03 06:06:43;;;;;;;4.10;2.23;;;;;;;;;;10242614;28;20427;-93
2022/07/03 06:11:58;;;;;;;6.13;2.55;;;;;;;;;;10240314;28;20491;-94
2022/07/03 06:17:07;;;;;;;4.95;2.20;;;;;;;;;;10239370;28;20522;-93
2022/07/03 06:22:10;;;;;;;3.30;2.30;;;;;;;;;;10239170;28;20416;-93
2022/07/03 06:27:15;;;;;;;4.13;2.35;;;;;;;;;;10242337;28;20995;-94
2022/07/03 06:32:28;;;;;;;5.60;2.67;;;;;;;;;;10221594;28;22088;-93
2022/07/03 06:37:34;;;;;;;3.77;2.40;;;;;;;;;;10245188;28;20475;-94
2022/07/03 06:42:36;;;;;;;8.17;2.83;;;;;;;;;;10233099;28;20424;-94
2022/07/03 06:47:41;;;;;;;3.03;2.20;;;;;;;;;;10235581;28;20503;-94
2022/07/03 06:52:51;;;;;;;3.73;2.10;;;;;;;;;;10243268;28;20419;-94
2022/07/03 06:57:53;;;;;;;6.32;2.95;;;;;;;;;;10241750;28;20459;-92
2022/07/03 07:03:00;;;;;;;4.50;1.80;;;;;;;;;;10236451;28;20506;-94
2022/07/03 07:08:21;;;;;;;4.32;2.38;;;;;;;;;;10239322;28;20848;-94
2022/07/03 07:13:31;;;;;;;3.03;1.85;;;;;;;;;;10244372;28;20448;-93
2022/07/03 07:18:34;;;;;;;3.33;2.10;;;;;;;;;;10246937;28;20466;-94
2022/07/03 07:23:37;;;;;;;4.20;2.03;;;;;;;;;;10255207;28;20415;-93
2022/07/03 07:28:39;;;;;;;4.00;1.90;;;;;;;;;;10252382;28;20416;-93
2022/07/03 07:39:10;;;;;;;3.80;1.90;;;;;;;;;;10241811;28;20398;-94
2022/07/03 07:44:12;;;;;;;3.83;2.30;;;;;;;;;;10245985;28;20420;-93
2022/07/03 07:49:14;;;;;;;3.97;1.90;;;;;;;;;;10243418;28;20445;-94
2022/07/03 07:54:25;;;;;;;2.13;1.90;;;;;;;;;;10251291;28;20431;-94
2022/07/03 07:59:34;;;;;;;3.97;2.60;;;;;;;;;;10240836;28;20442;-93
2022/07/03 08:09:57;;;;;;;2.42;1.88;;;;;;;;;;10247550;28;20444;-94
2022/07/03 08:14:59;;;;;;;2.75;2.08;;;;;;;;;;10247642;28;20506;-93
2022/07/03 08:20:04;;;;;;;2.72;1.83;;;;;;;;;;10246303;28;20522;-93
2022/07/03 08:25:11;;;;;;;4.15;2.30;;;;;;;;;;10242458;28;20514;-94
2022/07/03 08:30:17;;;;;;;3.25;2.08;;;;;;;;;;10245900;28;20466;-94
2022/07/03 08:35:22;;;;;;;4.73;2.00;;;;;;;;;;10247923;28;20424;-92
2022/07/03 08:40:25;;;;;;;3.67;2.03;;;;;;;;;;10243833;28;20932;-94
2022/07/03 08:45:29;;;;;;;5.70;2.10;;;;;;;;;;10241401;28;20750;-94
2022/07/03 08:50:35;;;;;;;3.45;1.95;;;;;;;;;;10251674;28;20471;-94
2022/07/03 08:55:38;;;;;;;2.85;1.92;;;;;;;;;;10237851;28;20424;-95
2022/07/03 09:00:46;;;;;;;3.95;2.10;;;;;;;;;;10247330;28;20416;-95
2022/07/03 09:05:52;;;;;;;4.40;2.20;;;;;;;;;;10244154;28;20950;-93
2022/07/03 09:10:55;;;;;;;4.40;2.13;;;;;;;;;;10240652;28;20420;-94
2022/07/03 09:15:57;;;;;;;5.15;2.47;;;;;;;;;;10244730;28;20429;-93
2022/07/03 09:21:05;;;;;;;4.63;2.17;;;;;;;;;;10240370;28;20448;-93
2022/07/03 09:26:17;;;;;;;3.80;2.33;;;;;;;;;;10250556;28;20436;-94
2022/07/03 09:31:21;;;;;;;3.80;2.35;;;;;;;;;;10253064;28;20435;-93
2022/07/03 09:36:24;;;;;;;3.95;2.38;;;;;;;;;;10260679;28;20420;-94
2022/07/03 09:41:28;;;;;;;4.70;2.28;;;;;;;;;;10268056;28;20460;-94
2022/07/03 09:46:32;;;;;;;2.42;2.22;;;;;;;;;;10238810;28;20810;-94
2022/07/03 09:51:37;;;;;;;4.10;2.93;;;;;;;;;;10241396;28;20908;-94
2022/07/03 09:56:43;;;;;;;4.65;2.50;;;;;;;;;;10238503;28;20865;-94
2022/07/03 10:01:49;;;;;;;3.72;2.50;;;;;;;;;;10240896;28;20909;-95
2022/07/03 10:06:53;;;;;;;3.33;2.20;;;;;;;;;;10242868;28;20443;-94
2022/07/03 10:12:03;;;;;;;3.63;2.60;;;;;;;;;;10243139;28;20444;-94
2022/07/03 10:17:07;;;;;;;4.63;2.90;;;;;;;;;;10242875;28;20424;-94
2022/07/03 10:22:22;;;;;;;3.65;2.22;;;;;;;;;;10237199;28;20602;-94
2022/07/03 10:27:30;;;;;;;3.83;2.60;;;;;;;;;;10159220;28;1910508;-94
2022/07/03 10:32:33;;;;;;;4.35;2.72;;;;;;;;;;10245145;28;20404;-94
2022/07/03 10:37:54;;;;;;;3.90;2.70;;;;;;;;;;10240599;28;20872;-94
2022/07/03 10:48:52;;;;;;;7.00;2.60;;;;;;;;;;10241278;28;20400;-94
2022/07/03 10:54:15;;;;;;;5.47;2.85;;;;;;;;;;10238458;28;20916;-95
2022/07/03 10:59:18;;;;;;;4.35;2.90;;;;;;;;;;10236482;28;20429;-94
2022/07/03 11:04:21;;;;;;;4.88;2.38;;;;;;;;;;10243843;28;20516;-94
2022/07/03 11:09:23;;;;;;;7.10;2.75;;;;;;;;;;10250781;28;20451;-94
2022/07/03 11:14:32;;;;;;;6.07;3.17;;;;;;;;;;10248210;28;20431;-95
2022/07/03 11:19:37;;;;;;;6.10;2.97;;;;;;;;;;10248172;28;20425;-95
2022/07/03 11:24:45;;;;;;;3.03;2.65;;;;;;;;;;10245973;28;20427;-94
2022/07/03 11:29:58;;;;;;;7.83;2.90;;;;;;;;;;10250459;28;20451;-94
2022/07/03 11:35:00;;;;;;;5.05;3.00;;;;;;;;;;10254800;28;20466;-94
2022/07/03 11:40:08;;;;;;;4.40;3.00;;;;;;;;;;10264907;28;20420;-94
2022/07/03 11:45:13;;;;;;;5.35;3.30;;;;;;;;;;10242194;28;20494;-95
2022/07/03 11:50:15;;;;;;;5.27;3.20;;;;;;;;;;10248401;28;20490;-94
2022/07/03 11:55:18;;;;;;;6.18;3.40;;;;;;;;;;10240686;28;20831;-93
2022/07/03 12:00:23;;;;;;;5.05;3.10;;;;;;;;;;10240953;28;20431;-94
2022/07/03 12:05:31;;;;;;;5.78;2.95;;;;;;;;;;10233746;28;20420;-94
2022/07/03 12:10:43;;;;;;;5.30;2.97;;;;;;;;;;10244125;28;20423;-95
2022/07/03 12:16:12;;;;;;;6.47;3.05;;;;;;;;;;10241689;28;20424;-94
2022/07/03 12:21:15;;;;;;;4.65;3.38;;;;;;;;;;10240107;28;20408;-95
2022/07/03 12:26:38;;;;;;;5.22;3.38;;;;;;;;;;10250316;28;20459;-95
2022/07/03 12:31:45;;;;;;;4.83;3.30;;;;;;;;;;10241847;28;20844;-95
2022/07/03 12:36:56;;;;;;;3.65;3.05;;;;;;;;;;10243877;28;20912;-95
2022/07/03 12:47:19;;;;;;;7.95;3.45;;;;;;;;;;10241376;28;20408;-95
2022/07/03 12:52:23;;;;;;;5.87;3.40;;;;;;;;;;10248299;28;20451;-94
2022/07/03 13:02:55;;;;;;;4.22;3.40;;;;;;;;;;10247477;28;20420;-95
2022/07/03 13:08:09;;;;;;;5.80;3.17;;;;;;;;;;10246264;28;20412;-95
2022/07/03 13:13:19;;;;;;;6.15;3.20;;;;;;;;;;10239539;28;20746;-95
2022/07/03 13:18:27;;;;;;;5.20;3.13;;;;;;;;;;10243764;28;20431;-95
2022/07/03 13:23:36;;;;;;;7.57;3.60;;;;;;;;;;10239026;28;20416;-95
2022/07/03 13:28:38;;;;;;;5.07;3.50;;;;;;;;;;10247219;28;20519;-95
2022/07/03 13:33:50;;;;;;;9.27;3.60;;;;;;;;;;10242092;28;20447;-95
2022/07/03 13:38:56;;;;;;;6.07;3.45;;;;;;;;;;10247547;28;20505;-95
2022/07/03 13:43:58;;;;;;;7.15;3.60;;;;;;;;;;10245113;29;20889;-95
2022/07/03 13:49:02;;;;;;;4.57;3.28;;;;;;;;;;10236917;28;20750;-95
2022/07/03 13:54:04;;;;;;;7.35;3.33;;;;;;;;;;10245499;28;20424;-96
2022/07/03 13:59:06;;;;;;;3.90;3.13;;;;;;;;;;10241207;28;20460;-95
2022/07/03 14:04:12;;;;;;;4.82;3.17;;;;;;;;;;10240360;28;20414;-95
2022/07/03 14:09:17;;;;;;;4.77;3.40;;;;;;;;;;10240610;28;20479;-95
2022/07/03 14:14:19;;;;;;;3.97;3.20;;;;;;;;;;10238748;28;20507;-95
2022/07/03 14:19:34;;;;;;;5.03;3.10;;;;;;;;;;10241924;28;20446;-95
2022/07/03 14:24:40;;;;;;;4.85;3.30;;;;;;;;;;10244341;28;20419;-94
2022/07/03 14:35:03;;;;;;;3.90;3.20;;;;;;;;;;10237881;23;20439;-84
2022/07/03 14:40:06;;;;;;;5.85;3.55;;;;;;;;;;10235110;28;20486;-85
2022/07/03 14:45:09;;;;;;;4.97;3.08;;;;;;;;;;10235434;28;20407;-85
2022/07/03 14:50:12;;;;;;;4.25;3.17;;;;;;;;;;10227555;28;20500;-85
2022/07/03 14:55:13;;;;;;;4.15;2.88;;;;;;;;;;10223912;28;20528;-84
2022/07/03 15:00:17;;;;;;;3.50;2.60;;;;;;;;;;10241441;28;20508;-85
2022/07/03 15:05:21;;;;;;;3.65;2.78;;;;;;;;;;10231359;28;20489;-84
2022/07/03 15:10:24;;;;;;;4.70;2.90;;;;;;;;;;10240932;28;20511;-84
2022/07/03 15:15:26;;;;;;;4.57;2.63;;;;;;;;;;10240787;28;20424;-85
2022/07/03 15:20:32;;;;;;;6.40;2.87;;;;;;;;;;10237588;28;20491;-84
2022/07/03 15:25:37;;;;;;;5.28;2.92;;;;;;;;;;10240137;28;20412;-85
2022/07/03 15:30:46;;;;;;;4.50;2.53;;;;;;;;;;10235052;28;20448;-85
2022/07/03 15:35:57;;;;;;;4.47;2.50;;;;;;;;;;10232706;28;20782;-85
2022/07/03 15:41:01;;;;;;;3.88;2.30;;;;;;;;;;10233220;28;20503;-85
2022/07/03 15:46:10;;;;;;;4.53;2.27;;;;;;;;;;10235509;28;20412;-85
2022/07/03 15:51:23;;;;;;;2.80;2.28;;;;;;;;;;10241874;28;20412;-86
2022/07/03 15:56:29;;;;;;;4.95;2.63;;;;;;;;;;10234507;28;20927;-85
2022/07/03 16:07:00;;;;;;;3.25;2.20;;;;;;;;;;10238997;28;20404;-86
2022/07/03 16:12:02;;;;;;;3.53;2.50;;;;;;;;;;10238961;28;20797;-85
2022/07/03 16:17:06;;;;;;;3.38;2.20;;;;;;;;;;10242318;28;20877;-85
2022/07/03 16:22:11;;;;;;;3.08;2.28;;;;;;;;;;10237012;28;20411;-85
2022/07/03 16:27:18;;;;;;;3.53;2.58;;;;;;;;;;10244121;28;20439;-85
2022/07/03 16:32:21;;;;;;;5.65;2.45;;;;;;;;;;10240916;28;20420;-86
2022/07/03 16:37:31;;;;;;;3.73;2.33;;;;;;;;;;10240750;28;20436;-86
2022/07/03 16:42:35;;;;;;;2.33;2.17;;;;;;;;;;10240263;28;20502;-85
2022/07/03 16:47:41;;;;;;;5.72;2.70;;;;;;;;;;10241912;28;20900;-85
2022/07/03 16:52:49;;;;;;;4.70;2.35;;;;;;;;;;10241024;28;20499;-86
2022/07/03 16:57:52;;;;;;;5.30;2.57;;;;;;;;;;10239611;28;20420;-86
2022/07/03 17:02:55;;;;;;;5.07;2.38;;;;;;;;;;10235690;28;20905;-86
2022/07/03 17:08:00;;;;;;;3.03;2.35;;;;;;;;;;10236377;28;20420;-87
2022/07/03 17:13:02;;;;;;;4.18;2.60;;;;;;;;;;10247306;28;20741;-86
2022/07/03 17:18:07;;;;;;;3.33;2.50;;;;;;;;;;10258865;28;20479;-85
2022/07/03 17:23:12;;;;;;;3.15;2.22;;;;;;;;;;10247824;28;20412;-87
2022/07/03 17:28:14;;;;;;;4.47;2.47;;;;;;;;;;10253911;28;20475;-85
2022/07/03 17:33:18;;;;;;;3.87;2.27;;;;;;;;;;10245751;28;20412;-86
2022/07/03 17:38:23;;;;;;;2.38;1.85;;;;;;;;;;10238235;28;20467;-86
2022/07/03 17:43:27;;;;;;;3.72;2.08;;;;;;;;;;10238940;28;20404;-86
2022/07/03 17:48:31;;;;;;;4.65;2.28;;;;;;;;;;10236114;28;20535;-87
2022/07/03 17:53:36;;;;;;;2.50;2.30;;;;;;;;;;10240772;28;20415;-86
2022/07/03 17:58:40;;;;;;;4.75;2.15;;;;;;;;;;10238884;28;20513;-86
2022/07/03 18:03:42;;;;;;;2.97;2.03;;;;;;;;;;10240193;28;20450;-86
2022/07/03 18:08:48;;;;;;;4.53;2.20;;;;;;;;;;10234868;28;20490;-85
2022/07/03 18:13:55;;;;;;;5.47;2.40;;;;;;;;;;10232799;28;20817;-85
2022/07/03 18:18:58;;;;;;;3.90;2.20;;;;;;;;;;10238635;28;20808;-86
2022/07/03 18:24:03;;;;;;;2.50;2.10;;;;;;;;;;10234197;28;20495;-86
2022/07/03 18:29:07;;;;;;;2.40;2.20;;;;;;;;;;10235935;28;20456;-85
2022/07/03 18:34:09;;;;;;;6.13;2.38;;;;;;;;;;10237437;28;20867;-85
2022/07/03 18:39:13;;;;;;;5.53;2.30;;;;;;;;;;10230678;28;20440;-85
2022/07/03 18:44:15;;;;;;;4.87;4.13;;;;;;;;;;10236868;28;21210;-85
2022/07/03 18:49:17;;;;;;;6.68;3.78;;;;;;;;;;10231760;28;20420;-86
2022/07/03 18:54:28;;;;;;;9.27;4.78;;;;;;;;;;10235343;28;20414;-85
2022/07/03 18:59:38;;;;;;;6.93;4.72;;;;;;;;;;10238293;28;20510;-85
2022/07/03 19:04:45;;;;;;;8.02;4.07;;;;;;;;;;10234797;28;20420;-85
2022/07/03 19:09:52;;;;;;;5.70;4.40;;;;;;;;;;10234936;28;20499;-85
2022/07/03 19:15:00;;;;;;;6.90;4.07;;;;;;;;;;10235968;28;20827;-84
2022/07/03 19:20:03;;;;;;;7.03;4.00;;;;;;;;;;10233743;28;20416;-86
2022/07/03 19:25:07;;;;;;;6.33;4.00;;;;;;;;;;10244060;28;20418;-86
2022/07/03 19:30:10;;;;;;;7.67;4.30;;;;;;;;;;10239972;28;20411;-86
2022/07/03 19:35:13;;;;;;;6.40;4.28;;;;;;;;;;10243414;28;20424;-86
2022/07/03 19:40:16;;;;;;;8.43;3.93;;;;;;;;;;10245585;28;20406;-85
2022/07/03 19:45:18;;;;;;;7.87;4.00;;;;;;;;;;10238211;28;20494;-86
2022/07/03 19:50:20;;;;;;;4.38;3.50;;;;;;;;;;10240594;28;20500;-86
2022/07/03 19:55:23;;;;;;;4.97;3.50;;;;;;;;;;10239881;28;20434;-86
2022/07/03 20:00:26;;;;;;;5.82;3.65;;;;;;;;;;10243657;28;20422;-85
2022/07/03 20:05:29;;;;;;;4.22;3.42;;;;;;;;;;10241659;28;20455;-86
2022/07/03 20:10:33;;;;;;;5.67;3.83;;;;;;;;;;10243722;28;20448;-86
2022/07/03 20:15:35;;;;;;;7.37;3.30;;;;;;;;;;10239643;28;20430;-86
2022/07/03 20:20:37;;;;;;;7.25;3.53;;;;;;;;;;10236862;28;20793;-86
2022/07/03 20:25:40;;;;;;;6.75;3.88;;;;;;;;;;10243281;28;20869;-86
2022/07/03 20:30:42;;;;;;;4.45;3.55;;;;;;;;;;10241112;28;20431;-86
2022/07/03 20:35:43;;;;;;;5.28;3.70;;;;;;;;;;10238963;28;20487;-86
2022/07/03 20:40:47;;;;;;;8.02;4.18;;;;;;;;;;10237043;28;20420;-86
2022/07/03 20:45:48;;;;;;;6.47;3.57;;;;;;;;;;10242636;28;20491;-84
2022/07/03 20:50:50;;;;;;;6.53;4.20;;;;;;;;;;10236272;28;20422;-86
2022/07/03 20:55:53;;;;;;;5.67;4.00;;;;;;;;;;10238808;28;20722;-86
2022/07/03 21:00:55;;;;;;;5.63;3.93;;;;;;;;;;10244568;28;20947;-85
2022/07/03 21:06:20;;;;;;;8.07;3.90;;;;;;;;;;10237329;28;20504;-84
2022/07/03 21:11:46;;;;;;;9.93;4.40;;;;;;;;;;10236765;28;20431;-96
2022/07/03 21:16:49;;;;;;;6.43;4.30;;;;;;;;;;10229868;29;20977;-89
2022/07/03 21:27:09;;;;;;;12.38;5.68;;;;;;;;;;10852074;23;20438;-89
2022/07/03 21:32:11;;;;;;;10.07;5.80;;;;;;;;;;10277279;28;20806;-80
2022/07/03 21:37:14;;;;;;;7.70;5.70;;;;;;;;;;10275647;28;20469;-77
2022/07/03 21:42:17;;;;;;;9.60;6.03;;;;;;;;;;10276067;28;20407;-84
2022/07/03 21:47:19;;;;;;;5.97;5.28;;;;;;;;;;10264491;28;20457;-84
2022/07/03 21:52:21;;;;;;;7.57;5.07;;;;;;;;;;10262627;28;20416;-85
2022/07/03 21:57:24;;;;;;;7.40;5.20;;;;;;;;;;10261560;28;20957;-85
2022/07/03 22:02:26;;;;;;;6.28;4.65;;;;;;;;;;10264064;28;20410;-83
2022/07/03 22:07:28;;;;;;;6.93;4.93;;;;;;;;;;10261582;28;20493;-83
2022/07/03 22:12:34;;;;;;;6.63;4.68;;;;;;;;;;10265071;28;20414;-85
2022/07/03 22:17:37;;;;;;;6.27;4.80;;;;;;;;;;10254021;28;20428;-84
2022/07/03 22:22:40;;;;;;;6.57;4.70;;;;;;;;;;10263366;28;20495;-82
2022/07/03 22:27:44;;;;;;;6.83;4.60;;;;;;;;;;10262095;28;20410;-84
2022/07/03 22:32:46;;;;;;;4.90;4.40;;;;;;;;;;10260399;28;20415;-85
2022/07/03 22:37:49;;;;;;;5.20;4.10;;;;;;;;;;10253930;28;20446;-85
2022/07/03 22:42:53;;;;;;;6.28;4.30;;;;;;;;;;10251081;28;20889;-83
2022/07/03 22:47:55;;;;;;;6.17;4.37;;;;;;;;;;10257078;28;20419;-85
2022/07/03 22:52:57;;;;;;;6.00;4.45;;;;;;;;;;10269573;28;20420;-83
2022/07/03 22:58:00;;;;;;;5.35;4.80;;;;;;;;;;10263706;28;20511;-83
2022/07/03 23:03:02;;;;;;;5.23;4.73;;;;;;;;;;10275744;28;20416;-84
2022/07/03 23:08:04;;;;;;;5.13;4.55;;;;;;;;;;10271161;28;20419;-83
2022/07/03 23:13:07;;;;;;;5.70;4.80;;;;;;;;;;10280686;28;20406;-83
2022/07/03 23:18:09;;;;;;;8.10;4.85;;;;;;;;;;10270785;28;20434;-84
2022/07/03 23:23:11;;;;;;;8.63;5.20;;;;;;;;;;10281442;28;20489;-83
2022/07/03 23:28:14;;;;;;;6.18;4.80;;;;;;;;;;10275717;28;20422;-83
2022/07/03 23:33:16;;;;;;;5.40;4.90;;;;;;;;;;10271792;28;20406;-84
2022/07/03 23:38:18;;;;;;;5.93;4.72;;;;;;;;;;10276098;28;20437;-84
2022/07/03 23:43:21;;;;;;;6.50;4.60;;;;;;;;;;10271848;28;20969;-83
2022/07/03 23:53:42;;;;;;;4.85;4.28;;;;;;;;;;10264706;28;20416;-83
2022/07/03 23:58:45;;;;;;;5.93;4.63;;;;;;;;;;10269112;28;20434;-83
